createdAt,value
2023-03-12T00:02:16.526Z,97588.38
2023-03-12T00:04:45.050Z,97594.56
2023-03-12T00:07:14.987Z,97584.66
2023-03-12T00:09:43.619Z,97593.72
2023-03-12T00:12:12.150Z,97599.94
2023-03-12T00:14:40.793Z,97604.47
2023-03-12T00:17:09.367Z,97609.00
2023-03-12T00:19:37.968Z,97613.53
2023-03-12T00:22:06.745Z,97607.34
2023-03-12T00:24:36.799Z,97608.16
2023-03-12T00:27:05.638Z,97611.69
2023-03-12T00:29:34.279Z,97618.09
2023-03-12T00:32:02.955Z,97619.13
2023-03-12T00:34:31.463Z,97618.09
2023-03-12T00:37:00.003Z,97627.16
2023-03-12T00:39:28.908Z,97620.94
2023-03-12T00:41:58.985Z,97628.00
2023-03-12T00:44:27.607Z,97632.53
2023-03-12T00:46:56.305Z,97628.00
2023-03-12T00:49:24.918Z,97632.53
2023-03-12T00:51:54.134Z,97638.75
2023-03-12T00:54:22.905Z,97636.06
2023-03-12T00:56:51.963Z,97634.38
2023-03-12T01:01:50.490Z,97640.59
2023-03-12T01:04:19.193Z,97635.22
2023-03-12T01:06:47.806Z,97633.53
2023-03-12T01:11:44.591Z,97629.66
2023-03-12T01:14:13.424Z,97632.53
2023-03-12T01:16:43.350Z,97633.38
2023-03-12T01:19:12.337Z,97625.97
2023-03-12T01:21:41.056Z,97618.09
2023-03-12T01:24:10.122Z,97624.50
2023-03-12T01:26:38.727Z,97618.91
2023-03-12T01:29:07.494Z,97621.81
2023-03-12T01:31:36.064Z,97616.44
2023-03-12T01:34:05.990Z,97618.25
2023-03-12T01:36:34.739Z,97619.13
2023-03-12T01:39:03.365Z,97625.31
2023-03-12T01:41:33.215Z,97627.16
2023-03-12T01:44:03.881Z,97620.94
2023-03-12T01:49:08.342Z,97620.94
2023-03-12T01:56:37.495Z,97631.91
2023-03-12T01:59:11.104Z,97623.00
2023-03-12T02:01:40.259Z,97634.59
2023-03-12T02:04:10.346Z,97629.22
2023-03-12T02:06:41.102Z,97644.28
2023-03-12T02:09:09.680Z,97644.50
2023-03-12T02:11:38.272Z,97644.50
2023-03-12T02:14:06.794Z,97645.31
2023-03-12T02:16:35.537Z,97650.88
2023-03-12T02:19:04.143Z,97653.38
2023-03-12T02:21:37.672Z,97651.72
2023-03-12T02:24:12.145Z,97645.50
2023-03-12T02:26:42.113Z,97647.34
2023-03-12T02:29:10.865Z,97656.25
2023-03-12T02:31:42.997Z,97670.53
2023-03-12T02:34:11.925Z,97668.00
2023-03-12T02:36:40.517Z,97670.69
2023-03-12T02:39:09.139Z,97674.22
2023-03-12T02:41:39.116Z,97680.41
2023-03-12T02:44:11.318Z,97677.94
2023-03-12T02:46:41.720Z,97678.75
2023-03-12T02:49:12.040Z,97677.94
2023-03-12T02:51:40.927Z,97688.66
2023-03-12T02:54:09.653Z,97688.66
2023-03-12T02:56:38.238Z,97692.34
2023-03-12T02:59:08.544Z,97690.31
2023-03-12T03:01:37.102Z,97689.50
2023-03-12T03:04:07.140Z,97694.03
2023-03-12T03:06:35.839Z,97695.91
2023-03-12T03:09:05.377Z,97703.09
2023-03-12T03:11:34.040Z,97709.31
2023-03-12T03:14:04.117Z,97709.31
2023-03-12T03:16:34.227Z,97709.50
2023-03-12T03:19:02.908Z,97704.97
2023-03-12T03:21:31.557Z,97708.47
2023-03-12T03:24:00.263Z,97719.22
2023-03-12T03:26:28.845Z,97722.75
2023-03-12T03:28:57.480Z,97721.91
2023-03-12T03:31:26.147Z,97731.63
2023-03-12T03:33:56.238Z,97729.94
2023-03-12T03:36:24.779Z,97732.63
2023-03-12T03:38:53.437Z,97735.31
2023-03-12T03:41:23.032Z,97740.69
2023-03-12T03:43:51.608Z,97742.53
2023-03-12T03:46:20.216Z,97743.38
2023-03-12T03:48:51.037Z,97741.72
2023-03-12T03:51:21.157Z,97750.59
2023-03-12T03:53:49.852Z,97744.41
2023-03-12T03:56:18.383Z,97745.22
2023-03-12T03:58:46.970Z,97750.59
2023-03-12T04:01:15.751Z,97744.41
2023-03-12T04:03:44.301Z,97739.88
2023-03-12T04:06:13.149Z,97744.41
2023-03-12T04:08:43.284Z,97749.78
2023-03-12T04:11:13.510Z,97747.91
2023-03-12T04:13:42.273Z,97739.03
2023-03-12T04:16:11.161Z,97744.41
2023-03-12T04:18:40.179Z,97744.41
2023-03-12T04:21:10.090Z,97747.91
2023-03-12T04:23:38.835Z,97749.78
2023-03-12T04:26:09.132Z,97750.81
2023-03-12T04:28:37.948Z,97743.56
2023-03-12T04:31:07.990Z,97755.16
2023-03-12T04:33:38.708Z,97752.47
2023-03-12T04:36:08.364Z,97748.94
2023-03-12T04:38:36.913Z,97748.94
2023-03-12T04:41:08.485Z,97759.69
2023-03-12T04:43:37.140Z,97767.75
2023-03-12T04:46:06.262Z,97766.91
2023-03-12T04:48:35.015Z,97763.19
2023-03-12T04:51:03.775Z,97771.25
2023-03-12T04:53:32.352Z,97770.44
2023-03-12T04:56:01.132Z,97775.97
2023-03-12T04:58:31.092Z,97766.91
2023-03-12T05:00:59.597Z,97766.91
2023-03-12T05:03:28.186Z,97767.91
2023-03-12T05:05:57.098Z,97779.47
2023-03-12T05:08:25.632Z,97775.97
2023-03-12T05:10:54.372Z,97773.28
2023-03-12T05:13:23.715Z,97775.16
2023-03-12T05:15:54.087Z,97775.97
2023-03-12T05:18:22.732Z,97788.56
2023-03-12T05:21:00.773Z,97785.88
2023-03-12T05:23:29.830Z,97793.13
2023-03-12T05:25:58.452Z,97793.13
2023-03-12T05:28:28.450Z,97800.34
2023-03-12T05:30:59.544Z,97802.81
2023-03-12T05:33:28.839Z,97806.53
2023-03-12T05:35:57.769Z,97801.16
2023-03-12T05:38:26.370Z,97805.50
2023-03-12T05:40:55.430Z,97810.06
2023-03-12T05:43:24.329Z,97811.69
2023-03-12T05:45:52.918Z,97816.25
2023-03-12T05:48:22.982Z,97816.25
2023-03-12T05:50:51.577Z,97821.44
2023-03-12T05:53:20.104Z,97824.31
2023-03-12T05:55:48.684Z,97828.66
2023-03-12T05:58:17.297Z,97826.00
2023-03-12T06:00:46.180Z,97827.00
2023-03-12T06:03:14.894Z,97840.41
2023-03-12T06:05:45.920Z,97837.72
2023-03-12T06:08:14.622Z,97836.72
2023-03-12T06:10:43.401Z,97839.59
2023-03-12T06:13:12.100Z,97836.72
2023-03-12T06:15:40.699Z,97842.09
2023-03-12T06:18:09.374Z,97845.63
2023-03-12T06:20:37.994Z,97855.53
2023-03-12T06:23:07.971Z,97855.53
2023-03-12T06:25:36.548Z,97854.50
2023-03-12T06:28:05.587Z,97859.69
2023-03-12T06:30:34.209Z,97855.31
2023-03-12T06:33:04.175Z,97861.50
2023-03-12T06:35:32.881Z,97863.38
2023-03-12T06:38:01.554Z,97863.59
2023-03-12T06:40:31.760Z,97867.38
2023-03-12T06:43:00.321Z,97875.81
2023-03-12T06:45:28.930Z,97870.44
2023-03-12T06:47:57.468Z,97866.06
2023-03-12T06:50:26.199Z,97868.94
2023-03-12T06:52:54.759Z,97876.81
2023-03-12T06:55:23.502Z,97879.69
2023-03-12T06:57:53.466Z,97882.38
2023-03-12T07:00:23.230Z,97893.94
2023-03-12T07:02:51.887Z,97888.38
2023-03-12T07:05:20.531Z,97878.50
2023-03-12T07:07:49.475Z,97873.94
2023-03-12T07:10:18.355Z,97880.16
2023-03-12T07:12:47.180Z,97880.16
2023-03-12T07:15:17.471Z,97886.34
2023-03-12T07:17:46.121Z,97880.16
2023-03-12T07:20:14.987Z,97882.66
2023-03-12T07:22:43.602Z,97883.09
2023-03-12T07:25:12.462Z,97882.06
2023-03-12T07:27:41.067Z,97875.88
2023-03-12T07:30:11.616Z,97883.94
2023-03-12T07:32:41.759Z,97885.59
2023-03-12T07:35:11.589Z,97881.06
2023-03-12T07:37:40.637Z,97882.56
2023-03-12T07:40:11.128Z,97887.94
2023-03-12T07:42:39.635Z,97883.19
2023-03-12T07:45:09.534Z,97892.94
2023-03-12T07:47:38.291Z,97890.88
2023-03-12T07:50:09.244Z,97891.25
2023-03-12T07:52:37.896Z,97889.22
2023-03-12T07:55:08.197Z,97893.56
2023-03-12T07:57:39.121Z,97886.34
2023-03-12T08:00:10.966Z,97892.56
2023-03-12T08:02:39.996Z,97892.56
2023-03-12T08:05:10.737Z,97888.19
2023-03-12T08:07:39.802Z,97886.16
2023-03-12T08:10:10.327Z,97886.63
2023-03-12T08:12:39.418Z,97899.41
2023-03-12T08:15:09.630Z,97901.06
2023-03-12T08:17:38.139Z,97890.53
2023-03-12T08:20:10.641Z,97900.06
2023-03-12T08:22:39.414Z,97900.06
2023-03-12T08:25:09.009Z,97907.09
2023-03-12T08:27:37.554Z,97903.19
2023-03-12T08:30:07.560Z,97903.38
2023-03-12T08:32:36.274Z,97914.13
2023-03-12T08:35:05.821Z,97916.81
2023-03-12T08:37:35.778Z,97916.44
2023-03-12T08:40:09.175Z,97918.78
2023-03-12T08:42:37.702Z,97921.78
2023-03-12T08:45:07.237Z,97916.63
2023-03-12T08:47:35.755Z,97920.34
2023-03-12T08:50:04.255Z,97914.97
2023-03-12T08:52:32.910Z,97914.13
2023-03-12T08:55:02.831Z,97921.34
2023-03-12T08:57:31.503Z,97917.66
2023-03-12T09:00:00.129Z,97920.34
2023-03-12T09:02:29.440Z,97925.72
2023-03-12T09:04:58.074Z,97942.84
2023-03-12T09:07:26.697Z,97928.19
2023-03-12T09:09:56.600Z,97925.44
2023-03-12T09:12:26.581Z,97938.22
2023-03-12T09:15:03.544Z,97935.41
2023-03-12T09:17:33.094Z,97928.31
2023-03-12T09:20:01.695Z,97924.59
2023-03-12T09:24:59.336Z,97931.16
2023-03-12T09:27:29.500Z,97926.63
2023-03-12T09:30:00.463Z,97926.63
2023-03-12T09:32:29.735Z,97928.56
2023-03-12T09:34:58.369Z,97927.72
2023-03-12T09:37:26.945Z,97926.44
2023-03-12T09:39:55.772Z,97937.84
2023-03-12T09:42:26.231Z,97927.09
2023-03-12T09:44:56.669Z,97932.47
2023-03-12T09:47:30.354Z,97925.22
2023-03-12T09:50:01.339Z,97919.88
2023-03-12T09:52:30.904Z,97920.69
2023-03-12T09:55:03.757Z,97927.75
2023-03-12T09:57:32.437Z,97918.00
2023-03-12T10:00:02.476Z,97918.88
2023-03-12T10:02:56.068Z,97915.31
2023-03-12T10:05:31.961Z,97913.50
2023-03-12T10:08:13.700Z,97914.31
2023-03-12T10:10:55.051Z,97915.97
2023-03-12T10:13:34.803Z,97911.63
2023-03-12T10:16:13.188Z,97903.38
2023-03-12T10:18:58.935Z,97901.34
2023-03-12T10:21:30.776Z,97904.22
2023-03-12T10:24:12.738Z,97908.94
2023-03-12T10:26:42.274Z,97912.28
2023-03-12T10:29:14.943Z,97912.09
2023-03-12T10:31:52.973Z,97911.25
2023-03-12T10:34:26.051Z,97903.84
2023-03-12T10:36:55.117Z,97914.59
2023-03-12T10:39:23.786Z,97914.59
2023-03-12T10:41:53.143Z,97918.94
2023-03-12T10:44:23.409Z,97914.59
2023-03-12T10:47:06.797Z,97916.44
2023-03-12T10:49:36.318Z,97919.97
2023-03-12T10:52:11.316Z,97922.66
2023-03-12T10:54:40.909Z,97927.81
2023-03-12T10:57:09.794Z,97921.78
2023-03-12T10:59:39.844Z,97922.00
2023-03-12T11:02:34.184Z,97923.66
2023-03-12T11:05:03.744Z,97920.59
2023-03-12T11:07:33.036Z,97917.06
2023-03-12T11:10:18.060Z,97925.97
2023-03-12T11:13:04.138Z,97920.59
2023-03-12T11:15:40.472Z,97929.69
2023-03-12T11:18:38.051Z,97925.34
2023-03-12T11:21:18.144Z,97923.47
2023-03-12T11:24:07.204Z,97914.59
2023-03-12T11:26:41.011Z,97923.28
2023-03-12T11:29:21.501Z,97930.06
2023-03-12T11:31:57.428Z,97918.28
2023-03-12T11:34:29.727Z,97933.19
2023-03-12T11:37:06.346Z,97926.16
2023-03-12T11:39:45.378Z,97922.66
2023-03-12T11:42:23.913Z,97920.81
2023-03-12T11:44:59.817Z,97925.13
2023-03-12T11:47:39.158Z,97922.66
2023-03-12T11:50:20.230Z,97925.97
2023-03-12T11:53:02.263Z,97924.75
2023-03-12T11:55:43.591Z,97924.59
2023-03-12T11:58:28.490Z,97928.13
2023-03-12T12:01:00.120Z,97926.94
2023-03-12T12:04:28.926Z,97927.13
2023-03-12T12:07:03.669Z,97916.84
2023-03-12T12:09:36.962Z,97917.66
2023-03-12T12:12:21.989Z,97918.50
2023-03-12T12:15:02.213Z,97918.69
2023-03-12T12:17:41.759Z,97917.66
2023-03-12T12:20:21.720Z,97920.91
2023-03-12T12:23:11.592Z,97918.88
2023-03-12T12:25:51.326Z,97928.97
2023-03-12T12:28:31.862Z,97922.22
2023-03-12T12:31:14.258Z,97924.25
2023-03-12T12:34:02.438Z,97922.59
2023-03-12T12:36:33.768Z,97926.28
2023-03-12T12:39:07.876Z,97924.59
2023-03-12T12:41:37.561Z,97916.91
2023-03-12T12:44:07.708Z,97914.22
2023-03-12T12:46:37.425Z,97914.41
2023-03-12T12:49:10.107Z,97909.69
2023-03-12T12:51:41.887Z,97909.69
2023-03-12T12:54:16.767Z,97914.97
2023-03-12T12:56:48.727Z,97913.28
2023-03-12T12:59:32.722Z,97911.72
2023-03-12T13:02:02.202Z,97905.97
2023-03-12T13:04:33.821Z,97909.22
2023-03-12T13:07:04.695Z,97914.22
2023-03-12T13:09:43.541Z,97914.00
2023-03-12T13:12:19.269Z,97910.50
2023-03-12T13:14:48.398Z,97913.84
2023-03-12T13:17:29.120Z,97914.69
2023-03-12T13:20:13.291Z,97917.22
2023-03-12T13:23:24.632Z,97911.00
2023-03-12T13:26:00.928Z,97910.16
2023-03-12T13:28:36.445Z,97917.22
2023-03-12T13:31:36.919Z,97914.16
2023-03-12T13:34:53.267Z,97915.34
2023-03-12T13:37:59.408Z,97922.59
2023-03-12T13:41:02.135Z,97913.84
2023-03-12T13:43:57.988Z,97912.00
2023-03-12T13:46:45.867Z,97920.72
2023-03-12T13:49:23.319Z,97911.84
2023-03-12T13:52:02.153Z,97919.69
2023-03-12T13:54:35.044Z,97919.69
2023-03-12T13:57:12.184Z,97909.16
2023-03-12T13:59:45.367Z,97921.56
2023-03-12T14:02:22.865Z,97928.59
2023-03-12T14:04:51.453Z,97920.91
2023-03-12T14:08:06.033Z,97927.28
2023-03-12T14:10:41.739Z,97932.66
2023-03-12T14:13:21.978Z,97929.13
2023-03-12T14:15:54.165Z,97926.63
2023-03-12T14:18:24.488Z,97920.06
2023-03-12T14:20:56.204Z,97925.44
2023-03-12T14:23:25.866Z,97937.03
2023-03-12T14:25:56.667Z,97935.44
2023-03-12T14:28:26.697Z,97938.34
2023-03-12T14:30:59.742Z,97938.72
2023-03-12T14:33:31.012Z,97935.19
2023-03-12T14:36:03.188Z,97929.97
2023-03-12T14:38:34.070Z,97941.75
2023-03-12T14:41:04.758Z,97933.69
2023-03-12T14:43:35.693Z,97941.75
2023-03-12T14:46:05.961Z,97941.91
2023-03-12T14:48:36.552Z,97939.22
2023-03-12T14:51:07.000Z,97942.09
2023-03-12T14:53:36.740Z,97941.09
2023-03-12T14:56:07.765Z,97941.09
2023-03-12T14:58:44.489Z,97933.84
2023-03-12T15:01:15.823Z,97935.88
2023-03-12T15:03:46.474Z,97935.06
2023-03-12T15:06:19.096Z,97936.72
2023-03-12T15:08:49.094Z,97928.66
2023-03-12T15:11:23.243Z,97926.63
2023-03-12T15:13:53.910Z,97922.94
2023-03-12T15:16:22.653Z,97935.50
2023-03-12T15:18:51.461Z,97942.94
2023-03-12T15:21:20.434Z,97929.97
2023-03-12T15:23:50.192Z,97931.81
2023-03-12T15:26:29.583Z,97941.56
2023-03-12T15:29:00.552Z,97936.53
2023-03-12T15:31:29.336Z,97929.31
2023-03-12T15:34:02.768Z,97921.63
2023-03-12T15:36:31.894Z,97924.84
2023-03-12T15:39:02.308Z,97925.88
2023-03-12T15:41:42.981Z,97923.38
2023-03-12T15:44:20.259Z,97924.41
2023-03-12T15:46:49.560Z,97930.97
2023-03-12T15:49:24.474Z,97924.84
2023-03-12T15:52:05.845Z,97928.03
2023-03-12T15:54:35.236Z,97925.13
2023-03-12T15:57:24.089Z,97937.56
2023-03-12T16:00:18.206Z,97929.69
2023-03-12T16:02:52.998Z,97930.72
2023-03-12T16:05:22.588Z,97932.38
2023-03-12T16:07:51.557Z,97939.41
2023-03-12T16:10:22.070Z,97937.56
2023-03-12T16:12:51.227Z,97938.41
2023-03-12T16:15:30.438Z,97931.00
2023-03-12T16:17:59.022Z,97932.66
2023-03-12T16:20:27.624Z,97931.00
2023-03-12T16:22:56.423Z,97943.41
2023-03-12T16:25:25.906Z,97931.66
2023-03-12T16:27:57.094Z,97931.66
2023-03-12T16:30:29.328Z,97937.03
2023-03-12T16:32:58.427Z,97942.41
2023-03-12T16:35:28.188Z,97945.25
2023-03-12T16:37:56.982Z,97950.47
2023-03-12T16:40:33.447Z,97954.84
2023-03-12T16:43:03.914Z,97951.47
2023-03-12T16:45:36.435Z,97950.47
2023-03-12T16:48:06.546Z,97951.47
2023-03-12T16:50:35.072Z,97956.00
2023-03-12T16:53:04.982Z,97956.00
2023-03-12T16:55:44.646Z,97966.56
2023-03-12T16:58:14.211Z,97956.84
2023-03-12T17:00:44.242Z,97960.38
2023-03-12T17:03:20.076Z,97956.84
2023-03-12T17:05:48.952Z,97950.47
2023-03-12T17:08:17.533Z,97949.81
2023-03-12T17:10:46.721Z,97946.41
2023-03-12T17:13:21.350Z,97944.91
2023-03-12T17:15:51.430Z,97933.13
2023-03-12T17:18:20.307Z,97932.31
2023-03-12T17:20:49.244Z,97936.66
2023-03-12T17:23:17.856Z,97931.94
2023-03-12T17:25:47.148Z,97932.31
2023-03-12T17:28:16.356Z,97919.91
2023-03-12T17:30:45.003Z,97919.22
2023-03-12T17:33:18.368Z,97928.31
2023-03-12T17:35:47.219Z,97920.91
2023-03-12T17:38:16.082Z,97927.28
2023-03-12T17:40:45.229Z,97927.13
2023-03-12T17:43:13.818Z,97930.81
2023-03-12T17:45:43.126Z,97938.03
2023-03-12T17:48:11.689Z,97945.09
2023-03-12T17:50:41.676Z,97933.34
2023-03-12T17:53:10.293Z,97929.63
2023-03-12T17:55:38.808Z,97914.69
2023-03-12T17:58:07.401Z,97917.56
2023-03-12T18:00:35.968Z,97919.38
2023-03-12T18:03:04.839Z,97914.88
2023-03-12T18:05:33.744Z,97902.28
2023-03-12T18:08:03.766Z,97898.59
2023-03-12T18:10:33.013Z,97896.06
2023-03-12T18:13:01.590Z,97901.44
2023-03-12T18:15:30.259Z,97896.91
2023-03-12T18:17:59.820Z,97905.13
2023-03-12T18:20:37.843Z,97913.84
2023-03-12T18:23:08.470Z,97914.00
2023-03-12T18:25:38.102Z,97916.69
2023-03-12T18:28:06.968Z,97910.50
2023-03-12T18:30:35.910Z,97923.09
2023-03-12T18:33:04.868Z,97923.94
2023-03-12T18:35:33.514Z,97924.97
2023-03-12T18:38:02.150Z,97933.03
2023-03-12T18:40:33.098Z,97937.38
2023-03-12T18:43:01.847Z,97931.00
2023-03-12T18:45:30.627Z,97921.25
2023-03-12T18:47:59.659Z,97910.88
2023-03-12T18:50:28.580Z,97905.06
2023-03-12T18:52:57.304Z,97884.41
2023-03-12T18:55:26.554Z,97894.09
2023-03-12T18:57:56.677Z,97905.88
2023-03-12T19:00:26.482Z,97907.16
2023-03-12T19:02:55.352Z,97889.38
2023-03-12T19:05:24.104Z,97896.78
2023-03-12T19:07:52.792Z,97895.97
2023-03-12T19:10:21.744Z,97907.75
2023-03-12T19:12:53.199Z,97914.97
2023-03-12T19:15:24.573Z,97901.72
2023-03-12T19:17:54.322Z,97900.69
2023-03-12T19:20:23.093Z,97892.63
2023-03-12T19:22:51.701Z,97886.44
2023-03-12T19:25:21.175Z,97890.97
2023-03-12T19:27:49.910Z,97902.53
2023-03-12T19:30:19.032Z,97897.16
2023-03-12T19:32:48.989Z,97901.34
2023-03-12T19:35:17.878Z,97897.81
2023-03-12T19:37:46.462Z,97903.19
2023-03-12T19:40:15.375Z,97892.63
2023-03-12T19:42:44.032Z,97910.88
2023-03-12T19:45:13.967Z,97899.47
2023-03-12T19:47:42.737Z,97908.75
2023-03-12T19:50:13.675Z,97909.59
2023-03-12T19:52:42.506Z,97903.38
2023-03-12T19:55:12.170Z,97896.34
2023-03-12T19:57:41.104Z,97891.78
2023-03-12T20:00:12.465Z,97886.44
2023-03-12T20:02:41.491Z,97878.56
2023-03-12T20:05:12.648Z,97881.25
2023-03-12T20:07:41.608Z,97868.00
2023-03-12T20:10:12.871Z,97865.31
2023-03-12T20:12:41.543Z,97855.41
2023-03-12T20:15:11.078Z,97862.63
2023-03-12T20:17:39.647Z,97859.13
2023-03-12T20:20:10.197Z,97850.03
2023-03-12T20:22:40.269Z,97848.38
2023-03-12T20:25:10.490Z,97846.50
2023-03-12T20:27:39.332Z,97840.31
2023-03-12T20:30:09.889Z,97834.94
2023-03-12T20:32:38.686Z,97834.72
2023-03-12T20:35:08.580Z,97821.31
2023-03-12T20:37:37.304Z,97803.53
2023-03-12T20:40:09.306Z,97805.00
2023-03-12T20:42:38.157Z,97808.72
2023-03-12T20:45:08.328Z,97813.25
2023-03-12T20:47:37.771Z,97808.91
2023-03-12T20:50:07.088Z,97818.81
2023-03-12T20:52:35.753Z,97807.88
2023-03-12T20:55:06.506Z,97801.88
2023-03-12T20:57:35.465Z,97802.72
2023-03-12T21:00:04.315Z,97804.19
2023-03-12T21:02:33.264Z,97810.22
2023-03-12T21:05:01.996Z,97803.16
2023-03-12T21:07:31.449Z,97802.16
2023-03-12T21:09:59.959Z,97804.84
2023-03-12T21:12:29.909Z,97799.47
2023-03-12T21:15:06.257Z,97803.97
2023-03-12T21:17:36.731Z,97796.78
2023-03-12T21:20:09.656Z,97806.66
2023-03-12T21:22:38.822Z,97802.16
2023-03-12T21:25:08.623Z,97802.97
2023-03-12T21:27:49.958Z,97809.19
2023-03-12T21:30:20.321Z,97803.81
2023-03-12T21:32:48.974Z,97792.22
2023-03-12T21:35:20.101Z,97798.44
2023-03-12T21:37:48.882Z,97800.28
2023-03-12T21:40:18.037Z,97795.94
2023-03-12T21:42:47.919Z,97795.75
2023-03-12T21:45:16.839Z,97802.16
2023-03-12T21:47:45.383Z,97805.66
2023-03-12T21:50:13.980Z,97806.66
2023-03-12T21:52:47.859Z,97796.78
2023-03-12T21:55:16.938Z,97794.09
2023-03-12T21:57:47.422Z,97802.97
2023-03-12T22:00:16.638Z,97805.00
2023-03-12T22:02:47.325Z,97797.13
2023-03-12T22:05:16.068Z,97798.81
2023-03-12T22:07:44.937Z,97791.75
2023-03-12T22:10:13.611Z,97786.38
2023-03-12T22:12:42.482Z,97791.75
2023-03-12T22:15:13.087Z,97799.00
2023-03-12T22:17:41.683Z,97799.00
2023-03-12T22:20:12.273Z,97781.41
2023-03-12T22:22:40.832Z,97785.13
2023-03-12T22:25:10.474Z,97785.13
2023-03-12T22:27:39.046Z,97769.81
2023-03-12T22:30:09.359Z,97776.22
2023-03-12T22:32:40.161Z,97781.41
2023-03-12T22:35:09.797Z,97791.31
2023-03-12T22:37:38.410Z,97778.72
2023-03-12T22:40:09.883Z,97780.56
2023-03-12T22:42:41.205Z,97766.31
2023-03-12T22:45:11.169Z,97764.44
2023-03-12T22:47:41.178Z,97765.28
2023-03-12T22:50:11.743Z,97771.47
2023-03-12T22:52:40.531Z,97763.63
2023-03-12T22:55:10.249Z,97773.34
2023-03-12T22:57:39.050Z,97776.03
2023-03-12T23:00:11.047Z,97776.03
2023-03-12T23:02:41.314Z,97776.84
2023-03-12T23:05:10.553Z,97771.69
2023-03-12T23:07:39.424Z,97769.81
2023-03-12T23:10:09.363Z,97767.16
2023-03-12T23:12:37.976Z,97769.00
2023-03-12T23:15:07.721Z,97762.81
2023-03-12T23:17:36.372Z,97777.22
2023-03-12T23:20:07.796Z,97770.00
2023-03-12T23:22:36.764Z,97775.38
2023-03-12T23:25:05.984Z,97771.03
2023-03-12T23:27:34.630Z,97766.50
2023-03-12T23:30:03.216Z,97770.22
2023-03-12T23:32:32.345Z,97767.53
2023-03-12T23:35:00.940Z,97771.03
2023-03-12T23:37:31.220Z,97780.75
2023-03-12T23:39:59.748Z,97771.88
2023-03-12T23:42:28.792Z,97781.78
2023-03-12T23:44:57.381Z,97787.16
2023-03-12T23:47:26.009Z,97771.03
2023-03-12T23:49:54.819Z,97773.72
2023-03-12T23:52:23.506Z,97771.03
2023-03-12T23:54:53.541Z,97775.38
2023-03-12T23:57:22.154Z,97771.03
2023-03-12T23:59:50.885Z,97764.84
